sensor_id;sensor_type;location;lat;lon;timestamp;P1;durP1;ratioP1;P2;durP2;ratioP2
23539;SDS011;11947;50.810;4.394;2023-01-08T00:01:30;7.95;;;3.90;;
23539;SDS011;11947;50.810;4.394;2023-01-08T00:03:56;12.65;;;3.97;;
23539;SDS011;11947;50.810;4.394;2023-01-08T00:06:21;9.60;;;3.97;;
23539;SDS011;11947;50.810;4.394;2023-01-08T00:08:47;12.77;;;4.68;;
23539;SDS011;11947;50.810;4.394;2023-01-08T00:11:13;9.38;;;4.40;;
23539;SDS011;11947;50.810;4.394;2023-01-08T00:13:38;10.23;;;3.88;;
23539;SDS011;11947;50.810;4.394;2023-01-08T00:16:06;12.85;;;4.20;;
23539;SDS011;11947;50.810;4.394;2023-01-08T00:18:37;14.93;;;4.50;;
23539;SDS011;11947;50.810;4.394;2023-01-08T00:21:03;9.68;;;3.97;;
23539;SDS011;11947;50.810;4.394;2023-01-08T00:23:29;13.13;;;4.18;;
23539;SDS011;11947;50.810;4.394;2023-01-08T00:25:56;6.78;;;2.45;;
23539;SDS011;11947;50.810;4.394;2023-01-08T00:28:26;4.00;;;1.30;;
23539;SDS011;11947;50.810;4.394;2023-01-08T00:30:51;6.03;;;1.02;;
23539;SDS011;11947;50.810;4.394;2023-01-08T00:35:53;7.10;;;1.17;;
23539;SDS011;11947;50.810;4.394;2023-01-08T00:38:18;4.00;;;1.00;;
23539;SDS011;11947;50.810;4.394;2023-01-08T00:40:44;11.93;;;1.35;;
23539;SDS011;11947;50.810;4.394;2023-01-08T00:43:12;6.03;;;1.00;;
23539;SDS011;11947;50.810;4.394;2023-01-08T00:45:37;4.40;;;1.20;;
23539;SDS011;11947;50.810;4.394;2023-01-08T00:48:03;8.18;;;1.33;;
23539;SDS011;11947;50.810;4.394;2023-01-08T00:50:29;6.13;;;1.05;;
23539;SDS011;11947;50.810;4.394;2023-01-08T00:52:55;5.97;;;1.13;;
23539;SDS011;11947;50.810;4.394;2023-01-08T00:55:20;3.95;;;1.13;;
23539;SDS011;11947;50.810;4.394;2023-01-08T00:57:46;6.10;;;1.15;;
23539;SDS011;11947;50.810;4.394;2023-01-08T01:00:12;8.25;;;1.42;;
23539;SDS011;11947;50.810;4.394;2023-01-08T01:02:40;7.10;;;1.27;;
23539;SDS011;11947;50.810;4.394;2023-01-08T01:05:06;6.22;;;1.35;;
23539;SDS011;11947;50.810;4.394;2023-01-08T01:07:33;5.53;;;1.13;;
23539;SDS011;11947;50.810;4.394;2023-01-08T01:09:59;8.80;;;1.38;;
23539;SDS011;11947;50.810;4.394;2023-01-08T01:12:24;8.13;;;1.33;;
23539;SDS011;11947;50.810;4.394;2023-01-08T01:14:50;9.52;;;1.50;;
23539;SDS011;11947;50.810;4.394;2023-01-08T01:17:16;11.82;;;1.42;;
23539;SDS011;11947;50.810;4.394;2023-01-08T01:19:42;16.05;;;1.60;;
23539;SDS011;11947;50.810;4.394;2023-01-08T01:22:08;5.35;;;1.20;;
23539;SDS011;11947;50.810;4.394;2023-01-08T01:24:33;4.40;;;1.13;;
23539;SDS011;11947;50.810;4.394;2023-01-08T01:26:59;12.85;;;1.40;;
23539;SDS011;11947;50.810;4.394;2023-01-08T01:29:25;8.35;;;1.70;;
23539;SDS011;11947;50.810;4.394;2023-01-08T01:31:50;14.82;;;1.85;;
23539;SDS011;11947;50.810;4.394;2023-01-08T01:34:16;12.48;;;1.98;;
23539;SDS011;11947;50.810;4.394;2023-01-08T01:36:42;7.80;;;1.48;;
23539;SDS011;11947;50.810;4.394;2023-01-08T01:39:07;7.10;;;1.63;;
23539;SDS011;11947;50.810;4.394;2023-01-08T01:52:26;11.40;;;2.60;;
23539;SDS011;11947;50.810;4.394;2023-01-08T01:54:55;11.55;;;2.60;;
23539;SDS011;11947;50.810;4.394;2023-01-08T01:57:23;15.00;;;2.50;;
23539;SDS011;11947;50.810;4.394;2023-01-08T01:59:50;14.57;;;2.80;;
23539;SDS011;11947;50.810;4.394;2023-01-08T02:02:18;10.90;;;2.50;;
23539;SDS011;11947;50.810;4.394;2023-01-08T02:04:44;12.52;;;2.70;;
23539;SDS011;11947;50.810;4.394;2023-01-08T02:12:10;11.32;;;2.78;;
23539;SDS011;11947;50.810;4.394;2023-01-08T02:14:56;16.80;;;2.95;;
23539;SDS011;11947;50.810;4.394;2023-01-08T02:20:25;14.23;;;3.53;;
23539;SDS011;11947;50.810;4.394;2023-01-08T02:28:44;13.13;;;4.00;;
23539;SDS011;11947;50.810;4.394;2023-01-08T02:31:11;16.42;;;4.32;;
23539;SDS011;11947;50.810;4.394;2023-01-08T02:33:41;17.60;;;5.13;;
23539;SDS011;11947;50.810;4.394;2023-01-08T02:36:14;11.10;;;4.50;;
23539;SDS011;11947;50.810;4.394;2023-01-08T02:38:45;17.15;;;5.15;;
23539;SDS011;11947;50.810;4.394;2023-01-08T02:41:52;16.27;;;4.85;;
23539;SDS011;11947;50.810;4.394;2023-01-08T02:45:05;21.98;;;6.00;;
23539;SDS011;11947;50.810;4.394;2023-01-08T02:47:15;50.63;;;7.07;;
23539;SDS011;11947;50.810;4.394;2023-01-08T02:49:49;21.55;;;5.88;;
23539;SDS011;11947;50.810;4.394;2023-01-08T02:52:39;16.38;;;4.57;;
23539;SDS011;11947;50.810;4.394;2023-01-08T02:55:11;14.98;;;5.25;;
23539;SDS011;11947;50.810;4.394;2023-01-08T02:57:36;12.35;;;4.72;;
23539;SDS011;11947;50.810;4.394;2023-01-08T03:00:03;8.75;;;3.30;;
23539;SDS011;11947;50.810;4.394;2023-01-08T03:02:30;6.32;;;2.53;;
23539;SDS011;11947;50.810;4.394;2023-01-08T03:05:00;8.18;;;2.20;;
23539;SDS011;11947;50.810;4.394;2023-01-08T03:07:31;7.45;;;2.25;;
23539;SDS011;11947;50.810;4.394;2023-01-08T03:09:58;12.48;;;2.58;;
23539;SDS011;11947;50.810;4.394;2023-01-08T03:12:24;6.82;;;2.13;;
23539;SDS011;11947;50.810;4.394;2023-01-08T03:15:02;9.52;;;2.42;;
23539;SDS011;11947;50.810;4.394;2023-01-08T03:17:32;9.10;;;2.50;;
23539;SDS011;11947;50.810;4.394;2023-01-08T03:20:14;8.23;;;2.30;;
23539;SDS011;11947;50.810;4.394;2023-01-08T03:22:44;8.70;;;1.88;;
23539;SDS011;11947;50.810;4.394;2023-01-08T03:25:13;8.50;;;2.28;;
23539;SDS011;11947;50.810;4.394;2023-01-08T03:27:42;7.30;;;1.95;;
23539;SDS011;11947;50.810;4.394;2023-01-08T03:30:11;10.73;;;1.60;;
23539;SDS011;11947;50.810;4.394;2023-01-08T03:32:40;7.10;;;1.58;;
23539;SDS011;11947;50.810;4.394;2023-01-08T03:35:08;13.23;;;1.85;;
23539;SDS011;11947;50.810;4.394;2023-01-08T03:37:38;18.35;;;2.28;;
23539;SDS011;11947;50.810;4.394;2023-01-08T03:40:08;11.20;;;1.73;;
23539;SDS011;11947;50.810;4.394;2023-01-08T03:42:40;13.52;;;1.73;;
23539;SDS011;11947;50.810;4.394;2023-01-08T03:45:06;8.75;;;1.80;;
23539;SDS011;11947;50.810;4.394;2023-01-08T03:47:32;11.60;;;1.50;;
23539;SDS011;11947;50.810;4.394;2023-01-08T03:50:02;11.73;;;1.52;;
23539;SDS011;11947;50.810;4.394;2023-01-08T03:52:32;15.25;;;1.45;;
23539;SDS011;11947;50.810;4.394;2023-01-08T03:54:57;13.98;;;1.35;;
23539;SDS011;11947;50.810;4.394;2023-01-08T03:57:23;13.63;;;1.38;;
23539;SDS011;11947;50.810;4.394;2023-01-08T03:59:49;10.55;;;2.10;;
23539;SDS011;11947;50.810;4.394;2023-01-08T04:02:15;10.88;;;1.42;;
23539;SDS011;11947;50.810;4.394;2023-01-08T04:04:41;9.93;;;1.45;;
23539;SDS011;11947;50.810;4.394;2023-01-08T04:07:08;19.20;;;2.08;;
23539;SDS011;11947;50.810;4.394;2023-01-08T04:09:35;8.98;;;1.20;;
23539;SDS011;11947;50.810;4.394;2023-01-08T04:12:00;14.40;;;1.52;;
23539;SDS011;11947;50.810;4.394;2023-01-08T04:14:26;15.93;;;2.08;;
23539;SDS011;11947;50.810;4.394;2023-01-08T04:16:52;13.30;;;1.55;;
23539;SDS011;11947;50.810;4.394;2023-01-08T04:19:17;10.88;;;1.20;;
23539;SDS011;11947;50.810;4.394;2023-01-08T04:21:48;17.88;;;1.73;;
23539;SDS011;11947;50.810;4.394;2023-01-08T04:24:17;12.60;;;1.48;;
23539;SDS011;11947;50.810;4.394;2023-01-08T04:26:43;16.30;;;1.95;;
23539;SDS011;11947;50.810;4.394;2023-01-08T04:29:10;16.85;;;1.92;;
23539;SDS011;11947;50.810;4.394;2023-01-08T04:31:36;15.07;;;1.77;;
23539;SDS011;11947;50.810;4.394;2023-01-08T04:34:02;13.55;;;1.45;;
23539;SDS011;11947;50.810;4.394;2023-01-08T04:36:27;13.10;;;1.52;;
23539;SDS011;11947;50.810;4.394;2023-01-08T04:38:53;11.38;;;1.75;;
23539;SDS011;11947;50.810;4.394;2023-01-08T04:41:19;14.75;;;1.70;;
23539;SDS011;11947;50.810;4.394;2023-01-08T04:43:44;13.45;;;1.92;;
23539;SDS011;11947;50.810;4.394;2023-01-08T04:46:10;14.90;;;1.88;;
23539;SDS011;11947;50.810;4.394;2023-01-08T04:48:35;22.95;;;2.15;;
23539;SDS011;11947;50.810;4.394;2023-01-08T04:51:02;22.58;;;1.95;;
23539;SDS011;11947;50.810;4.394;2023-01-08T04:53:28;16.00;;;1.90;;
23539;SDS011;11947;50.810;4.394;2023-01-08T04:56:01;16.65;;;2.20;;
23539;SDS011;11947;50.810;4.394;2023-01-08T04:58:28;14.52;;;1.95;;
23539;SDS011;11947;50.810;4.394;2023-01-08T05:00:54;12.48;;;1.63;;
23539;SDS011;11947;50.810;4.394;2023-01-08T05:03:20;15.50;;;2.10;;
23539;SDS011;11947;50.810;4.394;2023-01-08T05:05:46;18.63;;;1.77;;
23539;SDS011;11947;50.810;4.394;2023-01-08T05:08:11;12.73;;;2.42;;
23539;SDS011;11947;50.810;4.394;2023-01-08T05:10:37;16.75;;;2.80;;
23539;SDS011;11947;50.810;4.394;2023-01-08T05:13:02;25.10;;;3.40;;
23539;SDS011;11947;50.810;4.394;2023-01-08T05:15:28;19.63;;;3.10;;
23539;SDS011;11947;50.810;4.394;2023-01-08T05:18:00;19.02;;;2.95;;
23539;SDS011;11947;50.810;4.394;2023-01-08T05:20:28;15.48;;;2.67;;
23539;SDS011;11947;50.810;4.394;2023-01-08T05:22:55;18.55;;;2.80;;
23539;SDS011;11947;50.810;4.394;2023-01-08T05:25:22;16.83;;;2.40;;
23539;SDS011;11947;50.810;4.394;2023-01-08T05:27:48;18.45;;;2.17;;
23539;SDS011;11947;50.810;4.394;2023-01-08T05:30:14;21.48;;;3.17;;
23539;SDS011;11947;50.810;4.394;2023-01-08T05:32:40;20.08;;;3.10;;
23539;SDS011;11947;50.810;4.394;2023-01-08T05:35:06;27.25;;;4.18;;
23539;SDS011;11947;50.810;4.394;2023-01-08T05:37:33;23.38;;;4.35;;
23539;SDS011;11947;50.810;4.394;2023-01-08T05:39:59;22.33;;;3.88;;
23539;SDS011;11947;50.810;4.394;2023-01-08T05:42:25;20.52;;;4.97;;
23539;SDS011;11947;50.810;4.394;2023-01-08T05:44:50;24.70;;;5.35;;
23539;SDS011;11947;50.810;4.394;2023-01-08T05:47:16;23.92;;;6.70;;
23539;SDS011;11947;50.810;4.394;2023-01-08T05:49:41;21.92;;;6.05;;
23539;SDS011;11947;50.810;4.394;2023-01-08T05:52:07;25.33;;;5.80;;
23539;SDS011;11947;50.810;4.394;2023-01-08T05:54:33;19.65;;;4.55;;
23539;SDS011;11947;50.810;4.394;2023-01-08T05:56:58;20.92;;;4.50;;
23539;SDS011;11947;50.810;4.394;2023-01-08T05:59:24;25.23;;;4.43;;
23539;SDS011;11947;50.810;4.394;2023-01-08T06:01:50;24.35;;;4.45;;
23539;SDS011;11947;50.810;4.394;2023-01-08T06:04:15;16.95;;;3.30;;
23539;SDS011;11947;50.810;4.394;2023-01-08T06:06:41;112.85;;;6.32;;
23539;SDS011;11947;50.810;4.394;2023-01-08T06:09:06;23.67;;;2.72;;
23539;SDS011;11947;50.810;4.394;2023-01-08T06:11:33;14.93;;;2.55;;
23539;SDS011;11947;50.810;4.394;2023-01-08T06:13:58;15.48;;;2.17;;
23539;SDS011;11947;50.810;4.394;2023-01-08T06:16:24;17.98;;;2.50;;
23539;SDS011;11947;50.810;4.394;2023-01-08T06:18:50;17.38;;;2.20;;
23539;SDS011;11947;50.810;4.394;2023-01-08T06:21:15;13.63;;;1.75;;
23539;SDS011;11947;50.810;4.394;2023-01-08T06:23:41;13.00;;;1.95;;
23539;SDS011;11947;50.810;4.394;2023-01-08T06:26:06;16.20;;;1.90;;
23539;SDS011;11947;50.810;4.394;2023-01-08T06:28:33;12.98;;;1.80;;
23539;SDS011;11947;50.810;4.394;2023-01-08T06:31:00;18.42;;;1.92;;
23539;SDS011;11947;50.810;4.394;2023-01-08T06:33:26;19.77;;;1.73;;
23539;SDS011;11947;50.810;4.394;2023-01-08T06:35:52;16.25;;;2.17;;
23539;SDS011;11947;50.810;4.394;2023-01-08T06:38:18;13.35;;;1.45;;
23539;SDS011;11947;50.810;4.394;2023-01-08T06:40:44;15.05;;;2.00;;
23539;SDS011;11947;50.810;4.394;2023-01-08T06:43:10;15.65;;;2.03;;
23539;SDS011;11947;50.810;4.394;2023-01-08T06:45:36;14.70;;;1.90;;
23539;SDS011;11947;50.810;4.394;2023-01-08T06:48:02;15.55;;;2.22;;
23539;SDS011;11947;50.810;4.394;2023-01-08T06:50:30;14.25;;;2.05;;
23539;SDS011;11947;50.810;4.394;2023-01-08T06:52:56;17.50;;;2.38;;
23539;SDS011;11947;50.810;4.394;2023-01-08T06:55:22;14.27;;;1.90;;
23539;SDS011;11947;50.810;4.394;2023-01-08T06:57:52;19.20;;;2.22;;
23539;SDS011;11947;50.810;4.394;2023-01-08T07:00:19;16.27;;;2.15;;
23539;SDS011;11947;50.810;4.394;2023-01-08T07:02:46;15.57;;;1.98;;
23539;SDS011;11947;50.810;4.394;2023-01-08T07:05:11;14.73;;;2.20;;
23539;SDS011;11947;50.810;4.394;2023-01-08T07:07:39;20.30;;;2.28;;
23539;SDS011;11947;50.810;4.394;2023-01-08T07:10:04;17.77;;;2.17;;
23539;SDS011;11947;50.810;4.394;2023-01-08T07:12:30;17.30;;;2.05;;
23539;SDS011;11947;50.810;4.394;2023-01-08T07:14:56;17.77;;;2.20;;
23539;SDS011;11947;50.810;4.394;2023-01-08T07:17:21;19.08;;;2.38;;
23539;SDS011;11947;50.810;4.394;2023-01-08T07:19:47;21.25;;;2.67;;
23539;SDS011;11947;50.810;4.394;2023-01-08T07:22:13;16.70;;;1.98;;
23539;SDS011;11947;50.810;4.394;2023-01-08T07:24:39;17.73;;;2.30;;
23539;SDS011;11947;50.810;4.394;2023-01-08T07:27:04;16.65;;;2.40;;
23539;SDS011;11947;50.810;4.394;2023-01-08T07:29:30;24.58;;;2.28;;
23539;SDS011;11947;50.810;4.394;2023-01-08T07:31:56;16.52;;;2.63;;
23539;SDS011;11947;50.810;4.394;2023-01-08T07:34:21;19.13;;;2.85;;
23539;SDS011;11947;50.810;4.394;2023-01-08T07:36:47;18.65;;;2.47;;
23539;SDS011;11947;50.810;4.394;2023-01-08T07:39:13;15.15;;;2.50;;
23539;SDS011;11947;50.810;4.394;2023-01-08T07:41:38;13.70;;;2.08;;
23539;SDS011;11947;50.810;4.394;2023-01-08T07:44:04;18.75;;;2.63;;
23539;SDS011;11947;50.810;4.394;2023-01-08T07:46:32;17.70;;;3.60;;
23539;SDS011;11947;50.810;4.394;2023-01-08T07:48:58;15.30;;;2.65;;
23539;SDS011;11947;50.810;4.394;2023-01-08T07:51:25;20.25;;;2.75;;
23539;SDS011;11947;50.810;4.394;2023-01-08T07:53:51;15.75;;;2.65;;
23539;SDS011;11947;50.810;4.394;2023-01-08T07:56:19;14.85;;;2.47;;
23539;SDS011;11947;50.810;4.394;2023-01-08T08:01:17;14.88;;;2.30;;
23539;SDS011;11947;50.810;4.394;2023-01-08T08:04:17;14.30;;;2.15;;
23539;SDS011;11947;50.810;4.394;2023-01-08T08:06:43;13.25;;;2.13;;
23539;SDS011;11947;50.810;4.394;2023-01-08T08:09:13;14.50;;;2.38;;
23539;SDS011;11947;50.810;4.394;2023-01-08T08:11:41;13.88;;;2.85;;
23539;SDS011;11947;50.810;4.394;2023-01-08T08:14:10;17.50;;;2.38;;
23539;SDS011;11947;50.810;4.394;2023-01-08T08:32:02;13.15;;;2.25;;
23539;SDS011;11947;50.810;4.394;2023-01-08T08:34:31;12.30;;;2.58;;
23539;SDS011;11947;50.810;4.394;2023-01-08T08:37:13;9.07;;;1.90;;
23539;SDS011;11947;50.810;4.394;2023-01-08T08:39:43;7.20;;;1.90;;
23539;SDS011;11947;50.810;4.394;2023-01-08T08:42:11;8.07;;;2.05;;
23539;SDS011;11947;50.810;4.394;2023-01-08T08:44:57;16.50;;;2.45;;
23539;SDS011;11947;50.810;4.394;2023-01-08T08:47:23;11.55;;;1.83;;
23539;SDS011;11947;50.810;4.394;2023-01-08T08:49:50;11.00;;;1.80;;
23539;SDS011;11947;50.810;4.394;2023-01-08T08:52:22;10.85;;;1.60;;
23539;SDS011;11947;50.810;4.394;2023-01-08T08:55:07;10.07;;;1.80;;
23539;SDS011;11947;50.810;4.394;2023-01-08T08:57:37;4.85;;;1.55;;
23539;SDS011;11947;50.810;4.394;2023-01-08T09:00:03;6.80;;;1.02;;
23539;SDS011;11947;50.810;4.394;2023-01-08T09:02:45;3.60;;;0.80;;
23539;SDS011;11947;50.810;4.394;2023-01-08T09:05:13;5.82;;;1.13;;
23539;SDS011;11947;50.810;4.394;2023-01-08T09:07:39;4.93;;;0.90;;
23539;SDS011;11947;50.810;4.394;2023-01-08T09:10:12;6.00;;;0.95;;
23539;SDS011;11947;50.810;4.394;2023-01-08T09:12:42;3.13;;;0.80;;
23539;SDS011;11947;50.810;4.394;2023-01-08T09:15:08;4.47;;;1.08;;
23539;SDS011;11947;50.810;4.394;2023-01-08T09:17:34;3.63;;;0.90;;
23539;SDS011;11947;50.810;4.394;2023-01-08T09:20:01;1.30;;;0.60;;
23539;SDS011;11947;50.810;4.394;2023-01-08T09:22:27;2.25;;;0.50;;
23539;SDS011;11947;50.810;4.394;2023-01-08T09:27:30;1.42;;;0.55;;
23539;SDS011;11947;50.810;4.394;2023-01-08T09:29:56;2.28;;;0.73;;
23539;SDS011;11947;50.810;4.394;2023-01-08T09:34:57;4.05;;;0.68;;
23539;SDS011;11947;50.810;4.394;2023-01-08T09:37:26;1.73;;;0.60;;
23539;SDS011;11947;50.810;4.394;2023-01-08T09:40:04;1.42;;;0.68;;
23539;SDS011;11947;50.810;4.394;2023-01-08T09:42:30;1.35;;;0.60;;
23539;SDS011;11947;50.810;4.394;2023-01-08T09:44:57;2.78;;;0.93;;
23539;SDS011;11947;50.810;4.394;2023-01-08T09:47:25;2.85;;;0.90;;
23539;SDS011;11947;50.810;4.394;2023-01-08T09:50:02;2.72;;;0.80;;
23539;SDS011;11947;50.810;4.394;2023-01-08T09:52:41;2.78;;;0.60;;
23539;SDS011;11947;50.810;4.394;2023-01-08T09:55:16;3.72;;;1.23;;
23539;SDS011;11947;50.810;4.394;2023-01-08T09:57:45;3.53;;;0.90;;
23539;SDS011;11947;50.810;4.394;2023-01-08T10:00:13;6.28;;;1.63;;
23539;SDS011;11947;50.810;4.394;2023-01-08T10:02:41;2.95;;;1.00;;
23539;SDS011;11947;50.810;4.394;2023-01-08T10:05:14;3.20;;;1.00;;
23539;SDS011;11947;50.810;4.394;2023-01-08T10:07:42;3.80;;;1.13;;
23539;SDS011;11947;50.810;4.394;2023-01-08T10:10:30;4.55;;;1.10;;
23539;SDS011;11947;50.810;4.394;2023-01-08T10:12:55;5.88;;;1.50;;
23539;SDS011;11947;50.810;4.394;2023-01-08T10:15:22;8.38;;;1.60;;
23539;SDS011;11947;50.810;4.394;2023-01-08T10:17:50;5.47;;;1.20;;
23539;SDS011;11947;50.810;4.394;2023-01-08T10:20:29;9.45;;;1.30;;
23539;SDS011;11947;50.810;4.394;2023-01-08T10:23:15;6.25;;;1.08;;
23539;SDS011;11947;50.810;4.394;2023-01-08T10:25:47;5.38;;;1.40;;
23539;SDS011;11947;50.810;4.394;2023-01-08T10:28:23;5.30;;;1.30;;
23539;SDS011;11947;50.810;4.394;2023-01-08T10:31:03;4.95;;;1.10;;
23539;SDS011;11947;50.810;4.394;2023-01-08T10:36:48;5.90;;;1.30;;
23539;SDS011;11947;50.810;4.394;2023-01-08T10:39:26;8.55;;;1.85;;
23539;SDS011;11947;50.810;4.394;2023-01-08T10:41:56;6.72;;;1.48;;
23539;SDS011;11947;50.810;4.394;2023-01-08T10:44:29;7.53;;;1.25;;
23539;SDS011;11947;50.810;4.394;2023-01-08T10:46:58;13.73;;;1.65;;
23539;SDS011;11947;50.810;4.394;2023-01-08T10:49:38;10.48;;;1.30;;
23539;SDS011;11947;50.810;4.394;2023-01-08T10:52:31;7.93;;;1.45;;
23539;SDS011;11947;50.810;4.394;2023-01-08T10:58:03;4.93;;;1.40;;
23539;SDS011;11947;50.810;4.394;2023-01-08T11:00:39;8.70;;;1.40;;
23539;SDS011;11947;50.810;4.394;2023-01-08T11:03:50;12.93;;;1.70;;
23539;SDS011;11947;50.810;4.394;2023-01-08T11:05:55;5.20;;;1.30;;
23539;SDS011;11947;50.810;4.394;2023-01-08T11:08:45;7.30;;;1.60;;
23539;SDS011;11947;50.810;4.394;2023-01-08T11:19:25;6.70;;;1.20;;
23539;SDS011;11947;50.810;4.394;2023-01-08T11:53:11;6.45;;;1.35;;
23539;SDS011;11947;50.810;4.394;2023-01-08T11:55:51;8.35;;;1.63;;
23539;SDS011;11947;50.810;4.394;2023-01-08T12:03:33;6.68;;;1.67;;
23539;SDS011;11947;50.810;4.394;2023-01-08T12:06:11;8.48;;;1.50;;
23539;SDS011;11947;50.810;4.394;2023-01-08T12:09:17;8.88;;;1.73;;
23539;SDS011;11947;50.810;4.394;2023-01-08T12:25:50;9.48;;;1.60;;
23539;SDS011;11947;50.810;4.394;2023-01-08T12:33:33;10.00;;;1.42;;
23539;SDS011;11947;50.810;4.394;2023-01-08T12:46:29;14.45;;;2.58;;
23539;SDS011;11947;50.810;4.394;2023-01-08T12:49:04;8.52;;;2.38;;
23539;SDS011;11947;50.810;4.394;2023-01-08T12:54:25;16.73;;;5.50;;
23539;SDS011;11947;50.810;4.394;2023-01-08T12:57:17;12.18;;;4.15;;
23539;SDS011;11947;50.810;4.394;2023-01-08T12:59:59;24.60;;;9.00;;
23539;SDS011;11947;50.810;4.394;2023-01-08T13:05:45;13.57;;;3.83;;
23539;SDS011;11947;50.810;4.394;2023-01-08T13:08:54;9.73;;;2.50;;
23539;SDS011;11947;50.810;4.394;2023-01-08T13:11:28;12.50;;;2.00;;
23539;SDS011;11947;50.810;4.394;2023-01-08T13:29:54;5.30;;;1.40;;
23539;SDS011;11947;50.810;4.394;2023-01-08T13:43:34;5.75;;;1.30;;
23539;SDS011;11947;50.810;4.394;2023-01-08T13:46:05;8.13;;;2.00;;
23539;SDS011;11947;50.810;4.394;2023-01-08T13:48:47;6.93;;;1.38;;
23539;SDS011;11947;50.810;4.394;2023-01-08T13:56:50;7.60;;;1.58;;
23539;SDS011;11947;50.810;4.394;2023-01-08T14:05:00;10.25;;;2.45;;
23539;SDS011;11947;50.810;4.394;2023-01-08T14:07:36;9.20;;;2.30;;
23539;SDS011;11947;50.810;4.394;2023-01-08T14:10:06;12.77;;;3.13;;
23539;SDS011;11947;50.810;4.394;2023-01-08T14:12:36;7.40;;;1.80;;
23539;SDS011;11947;50.810;4.394;2023-01-08T14:15:01;5.72;;;1.63;;
23539;SDS011;11947;50.810;4.394;2023-01-08T14:17:33;11.82;;;1.80;;
23539;SDS011;11947;50.810;4.394;2023-01-08T14:19:59;8.10;;;1.75;;
23539;SDS011;11947;50.810;4.394;2023-01-08T14:22:30;8.52;;;2.30;;
23539;SDS011;11947;50.810;4.394;2023-01-08T14:25:00;8.38;;;1.67;;
23539;SDS011;11947;50.810;4.394;2023-01-08T14:28:11;6.75;;;1.88;;
23539;SDS011;11947;50.810;4.394;2023-01-08T14:30:47;10.23;;;1.80;;
23539;SDS011;11947;50.810;4.394;2023-01-08T14:33:13;6.80;;;2.13;;
23539;SDS011;11947;50.810;4.394;2023-01-08T14:35:40;7.60;;;2.13;;
23539;SDS011;11947;50.810;4.394;2023-01-08T14:38:11;7.82;;;2.15;;
23539;SDS011;11947;50.810;4.394;2023-01-08T14:40:39;11.07;;;2.40;;
23539;SDS011;11947;50.810;4.394;2023-01-08T14:43:12;9.65;;;2.30;;
23539;SDS011;11947;50.810;4.394;2023-01-08T14:45:46;6.82;;;2.10;;
23539;SDS011;11947;50.810;4.394;2023-01-08T14:48:24;11.07;;;2.35;;
23539;SDS011;11947;50.810;4.394;2023-01-08T14:51:09;20.05;;;7.38;;
23539;SDS011;11947;50.810;4.394;2023-01-08T14:53:42;9.15;;;2.00;;
23539;SDS011;11947;50.810;4.394;2023-01-08T14:56:14;8.17;;;1.67;;
23539;SDS011;11947;50.810;4.394;2023-01-08T14:58:48;9.40;;;3.95;;
23539;SDS011;11947;50.810;4.394;2023-01-08T15:01:19;12.85;;;3.28;;
23539;SDS011;11947;50.810;4.394;2023-01-08T15:03:50;10.93;;;3.88;;
23539;SDS011;11947;50.810;4.394;2023-01-08T15:06:44;13.98;;;5.82;;
23539;SDS011;11947;50.810;4.394;2023-01-08T15:09:20;16.00;;;6.80;;
23539;SDS011;11947;50.810;4.394;2023-01-08T15:12:01;16.60;;;10.90;;
23539;SDS011;11947;50.810;4.394;2023-01-08T15:14:31;29.30;;;13.10;;
23539;SDS011;11947;50.810;4.394;2023-01-08T15:17:08;11.00;;;3.28;;
23539;SDS011;11947;50.810;4.394;2023-01-08T15:19:45;14.02;;;3.88;;
23539;SDS011;11947;50.810;4.394;2023-01-08T15:22:19;15.05;;;4.18;;
23539;SDS011;11947;50.810;4.394;2023-01-08T15:24:58;22.13;;;8.18;;
23539;SDS011;11947;50.810;4.394;2023-01-08T15:27:30;41.20;;;19.17;;
23539;SDS011;11947;50.810;4.394;2023-01-08T15:30:00;23.67;;;11.40;;
23539;SDS011;11947;50.810;4.394;2023-01-08T15:32:29;13.70;;;5.57;;
23539;SDS011;11947;50.810;4.394;2023-01-08T15:34:59;13.32;;;3.53;;
23539;SDS011;11947;50.810;4.394;2023-01-08T15:37:25;11.38;;;2.72;;
23539;SDS011;11947;50.810;4.394;2023-01-08T15:39:54;32.25;;;13.05;;
23539;SDS011;11947;50.810;4.394;2023-01-08T15:42:24;21.40;;;3.15;;
23539;SDS011;11947;50.810;4.394;2023-01-08T15:45:13;15.40;;;6.30;;
23539;SDS011;11947;50.810;4.394;2023-01-08T15:47:43;25.77;;;10.23;;
23539;SDS011;11947;50.810;4.394;2023-01-08T15:50:11;20.33;;;7.53;;
23539;SDS011;11947;50.810;4.394;2023-01-08T15:52:37;26.27;;;7.38;;
23539;SDS011;11947;50.810;4.394;2023-01-08T15:55:05;34.22;;;11.27;;
23539;SDS011;11947;50.810;4.394;2023-01-08T15:57:33;45.40;;;15.02;;
23539;SDS011;11947;50.810;4.394;2023-01-08T15:59:58;102.65;;;34.53;;
23539;SDS011;11947;50.810;4.394;2023-01-08T16:02:24;17.70;;;7.75;;
23539;SDS011;11947;50.810;4.394;2023-01-08T16:04:53;9.00;;;2.80;;
23539;SDS011;11947;50.810;4.394;2023-01-08T16:07:20;16.88;;;3.15;;
23539;SDS011;11947;50.810;4.394;2023-01-08T16:09:46;11.57;;;2.65;;
23539;SDS011;11947;50.810;4.394;2023-01-08T16:12:12;14.85;;;3.00;;
23539;SDS011;11947;50.810;4.394;2023-01-08T16:14:38;9.10;;;2.60;;
23539;SDS011;11947;50.810;4.394;2023-01-08T16:17:04;11.88;;;2.10;;
23539;SDS011;11947;50.810;4.394;2023-01-08T16:19:30;11.63;;;3.65;;
23539;SDS011;11947;50.810;4.394;2023-01-08T16:21:56;10.73;;;3.50;;
23539;SDS011;11947;50.810;4.394;2023-01-08T16:24:22;15.65;;;2.90;;
23539;SDS011;11947;50.810;4.394;2023-01-08T16:26:48;11.23;;;1.98;;
23539;SDS011;11947;50.810;4.394;2023-01-08T16:29:18;14.80;;;3.63;;
23539;SDS011;11947;50.810;4.394;2023-01-08T16:31:44;10.88;;;2.42;;
23539;SDS011;11947;50.810;4.394;2023-01-08T16:34:10;15.20;;;3.85;;
23539;SDS011;11947;50.810;4.394;2023-01-08T16:36:36;21.88;;;9.32;;
23539;SDS011;11947;50.810;4.394;2023-01-08T16:39:02;13.25;;;3.83;;
23539;SDS011;11947;50.810;4.394;2023-01-08T16:41:29;27.02;;;12.23;;
23539;SDS011;11947;50.810;4.394;2023-01-08T16:43:54;18.98;;;7.10;;
23539;SDS011;11947;50.810;4.394;2023-01-08T16:46:20;16.55;;;6.45;;
23539;SDS011;11947;50.810;4.394;2023-01-08T16:48:46;18.27;;;6.03;;
23539;SDS011;11947;50.810;4.394;2023-01-08T16:51:12;23.08;;;8.57;;
23539;SDS011;11947;50.810;4.394;2023-01-08T16:53:39;15.90;;;6.40;;
23539;SDS011;11947;50.810;4.394;2023-01-08T16:56:05;16.92;;;5.13;;
23539;SDS011;11947;50.810;4.394;2023-01-08T16:58:31;16.42;;;5.60;;
23539;SDS011;11947;50.810;4.394;2023-01-08T17:00:59;14.48;;;3.35;;
23539;SDS011;11947;50.810;4.394;2023-01-08T17:03:25;15.20;;;4.05;;
23539;SDS011;11947;50.810;4.394;2023-01-08T17:05:54;15.43;;;5.10;;
23539;SDS011;11947;50.810;4.394;2023-01-08T17:08:26;21.17;;;10.15;;
23539;SDS011;11947;50.810;4.394;2023-01-08T17:10:53;45.58;;;23.45;;
23539;SDS011;11947;50.810;4.394;2023-01-08T17:13:20;31.33;;;14.73;;
23539;SDS011;11947;50.810;4.394;2023-01-08T17:15:45;11.70;;;4.85;;
23539;SDS011;11947;50.810;4.394;2023-01-08T17:18:11;19.10;;;9.30;;
23539;SDS011;11947;50.810;4.394;2023-01-08T17:20:37;20.73;;;8.25;;
23539;SDS011;11947;50.810;4.394;2023-01-08T17:23:02;41.67;;;17.27;;
23539;SDS011;11947;50.810;4.394;2023-01-08T17:25:28;33.40;;;13.85;;
23539;SDS011;11947;50.810;4.394;2023-01-08T17:27:53;46.45;;;20.35;;
23539;SDS011;11947;50.810;4.394;2023-01-08T17:30:22;16.02;;;5.70;;
23539;SDS011;11947;50.810;4.394;2023-01-08T17:32:47;13.38;;;2.63;;
23539;SDS011;11947;50.810;4.394;2023-01-08T17:35:13;12.32;;;3.72;;
23539;SDS011;11947;50.810;4.394;2023-01-08T17:37:39;20.92;;;7.78;;
23539;SDS011;11947;50.810;4.394;2023-01-08T17:40:04;11.63;;;2.80;;
23539;SDS011;11947;50.810;4.394;2023-01-08T17:42:31;25.77;;;10.18;;
23539;SDS011;11947;50.810;4.394;2023-01-08T17:44:57;11.82;;;4.90;;
23539;SDS011;11947;50.810;4.394;2023-01-08T17:47:29;54.53;;;27.75;;